This is the latest recevied weather packets stored in our database for station/object SQ6RR-12. If no packets are shown the sender has not sent any weather packets the latest 10 day(s).
| Time | Temp. | Humidity | Pressure | Rain* | Wind** | Luminosity | Snow |
|---|---|---|---|---|---|---|---|
| 1778073012 | 25° C | 43% | 1007.9 hPa | 0 mm | - | - | - |
| 1778072736 | 25.56° C | 43% | 1007.8 hPa | 0 mm | - | - | - |
| 1778072481 | 25° C | 46% | 1007.8 hPa | 0 mm | - | - | - |
| 1778072203 | 23.89° C | 48% | 1007.8 hPa | 0 mm | - | - | - |
| 1778071931 | 23.89° C | 47% | 1007.8 hPa | 0 mm | - | - | - |
| 1778071661 | 24.44° C | 48% | 1007.8 hPa | 0 mm | - | - | - |
| 1778071404 | 23.89° C | 52% | 1007.8 hPa | 0 mm | - | - | - |
| 1778071136 | 23.89° C | 51% | 1007.9 hPa | 0 mm | - | - | - |
| 1778070883 | 23.89° C | 51% | 1007.9 hPa | 0 mm | - | - | - |
| 1778070611 | 23.89° C | 55% | 1007.9 hPa | 0 mm | - | - | - |
| 1778070336 | 23.33° C | 53% | 1008 hPa | 0 mm | - | - | - |
| 1778070082 | 23.33° C | 55% | 1008 hPa | 0 mm | - | - | - |
| 1778069803 | 23.33° C | 53% | 1007.9 hPa | 0 mm | - | - | - |
| 1778069543 | 23.33° C | 54% | 1007.9 hPa | 0 mm | - | - | - |
| 1778069294 | 22.78° C | 58% | 1008 hPa | 0 mm | - | - | - |
| 1778069012 | 21.11° C | 60% | 1007.9 hPa | 0 mm | - | - | - |
| 1778068730 | 21.11° C | 61% | 1007.9 hPa | 0 mm | - | - | - |
| 1778068467 | 21.67° C | 59% | 1007.8 hPa | 0 mm | - | - | - |
| 1778068207 | 22.22° C | 59% | 1007.7 hPa | 0 mm | - | - | - |
| 1778067958 | 21.67° C | 62% | 1007.7 hPa | 0 mm | - | - | - |
| 1778067673 | 21.67° C | 61% | 1007.8 hPa | 0 mm | - | - | - |
| 1778067403 | 21.11° C | 65% | 1007.7 hPa | 0 mm | - | - | - |
| 1778067138 | 21.67° C | 62% | 1007.7 hPa | 0 mm | - | - | - |
| 1778066872 | 21.11° C | 65% | 1007.7 hPa | 0 mm | - | - | - |
| 1778066608 | 21.67° C | 62% | 1007.7 hPa | 0 mm | - | - | - |
* Rain latest hour (hover to see other rain measurements)
** Current wind speed in m/s (hover to see current wind gust speed)